createdAt,value
2019-03-06T04:25:58.250Z,99.90
2019-03-06T04:28:47.577Z,99.90
2019-03-06T04:31:40.242Z,99.90
2019-03-06T04:34:22.314Z,99.90
2019-03-06T04:37:04.916Z,99.90
2019-03-06T04:39:47.020Z,99.90
2019-03-06T04:42:28.951Z,99.90
2019-03-06T04:45:11.176Z,99.90
2019-03-06T04:47:53.286Z,99.90
2019-03-06T04:50:35.185Z,99.90
2019-03-06T04:53:17.522Z,99.90
2019-03-06T04:55:59.621Z,99.90
2019-03-06T04:58:41.642Z,99.90
2019-03-06T05:01:23.739Z,99.90
2019-03-06T05:04:06.006Z,99.90
2019-03-06T05:06:47.701Z,99.90
2019-03-06T05:09:29.771Z,99.90
2019-03-06T05:12:11.573Z,99.90
2019-03-06T05:14:53.614Z,99.90
2019-03-06T05:20:30.490Z,99.90
2019-03-06T05:23:19.849Z,99.90
2019-03-06T05:26:02.006Z,99.90
2019-03-06T05:28:44.365Z,99.90
2019-03-06T05:31:26.384Z,99.90
2019-03-06T05:34:08.409Z,99.90
2019-03-06T05:36:50.456Z,99.90
2019-03-06T05:39:32.844Z,99.90
2019-03-06T05:42:14.990Z,99.90
2019-03-06T05:44:57.115Z,99.90
2019-03-06T05:47:40.663Z,99.90
2019-03-06T05:50:21.235Z,99.90
2019-03-06T05:53:03.668Z,99.90
2019-03-06T05:55:45.694Z,99.90
2019-03-06T05:58:26.441Z,99.90
2019-03-06T06:01:08.301Z,99.90
2019-03-06T06:03:51.493Z,99.90
2019-03-06T06:09:35.136Z,99.90
2019-03-06T06:12:19.007Z,99.90
2019-03-06T06:15:01.516Z,99.90
2019-03-06T06:17:44.541Z,99.90
2019-03-06T06:20:26.800Z,99.90
2019-03-06T06:23:30.805Z,99.90
2019-03-06T06:26:13.424Z,99.90
2019-03-06T06:28:54.942Z,99.90
2019-03-06T06:31:37.469Z,99.90
2019-03-06T06:34:18.981Z,99.90
2019-03-06T06:37:01.192Z,99.90
2019-03-06T06:39:43.550Z,99.90
2019-03-06T06:42:25.988Z,99.90
2019-03-06T06:45:08.325Z,99.90
2019-03-06T06:47:50.672Z,99.90
2019-03-06T06:50:33.216Z,99.90
2019-03-06T06:53:15.427Z,99.90
2019-03-06T06:55:57.704Z,99.90
2019-03-06T06:58:40.105Z,99.90
2019-03-06T07:04:45.190Z,99.90
2019-03-06T07:07:34.538Z,99.90
2019-03-06T07:10:35.017Z,99.90
2019-03-06T07:13:25.759Z,99.90
2019-03-06T07:16:27.695Z,99.90
2019-03-06T07:22:34.377Z,99.90
2019-03-06T07:25:27.832Z,99.90
2019-03-06T07:28:28.997Z,99.90
2019-03-06T07:31:31.906Z,99.90
2019-03-06T07:34:33.180Z,99.90
2019-03-06T07:40:57.654Z,99.90
2019-03-06T07:47:02.383Z,99.90
2019-03-06T07:49:54.832Z,99.90
2019-03-06T07:53:01.831Z,99.90
2019-03-06T07:56:00.959Z,99.90
2019-03-06T07:58:42.718Z,99.90
2019-03-06T08:01:24.754Z,99.90
2019-03-06T08:04:07.025Z,99.90
2019-03-06T08:07:07.914Z,99.90
2019-03-06T08:09:49.980Z,99.90
2019-03-06T08:12:50.924Z,99.90
2019-03-06T08:15:51.919Z,99.90
2019-03-06T08:18:52.932Z,99.90
2019-03-06T08:21:53.969Z,99.90
2019-03-06T08:24:55.205Z,99.90
2019-03-06T08:27:37.202Z,99.90
2019-03-06T08:30:19.277Z,99.90
2019-03-06T08:32:49.947Z,99.90
2019-03-06T08:35:32.206Z,99.90
2019-03-06T08:38:14.608Z,99.90
2019-03-06T08:41:04.045Z,99.90
2019-03-06T08:43:40.894Z,99.90
2019-03-06T08:46:41.912Z,99.90
2019-03-06T08:52:50.372Z,99.90
2019-03-06T08:55:51.221Z,99.90
2019-03-06T08:58:52.413Z,99.90
2019-03-06T09:01:59.778Z,99.90
2019-03-06T09:04:58.563Z,99.90
2019-03-06T09:07:47.964Z,99.90
2019-03-06T09:10:48.909Z,99.90
2019-03-06T09:13:45.854Z,99.90
2019-03-06T09:16:37.610Z,99.90
2019-03-06T09:19:38.478Z,99.90
2019-03-06T09:22:28.357Z,99.90
2019-03-06T09:25:29.307Z,99.90
2019-03-06T09:28:23.245Z,99.90
2019-03-06T09:31:18.208Z,99.90
2019-03-06T09:34:13.036Z,99.90
2019-03-06T09:37:13.743Z,99.90
2019-03-06T09:40:10.002Z,99.90
2019-03-06T09:43:11.309Z,99.90
2019-03-06T09:46:12.353Z,99.90
2019-03-06T09:49:13.431Z,99.90
2019-03-06T09:52:17.793Z,99.90
2019-03-06T09:55:21.045Z,99.90
2019-03-06T09:58:25.073Z,99.90
2019-03-06T10:01:25.564Z,99.90
2019-03-06T10:04:23.401Z,99.90
2019-03-06T10:07:24.681Z,99.90
2019-03-06T10:10:13.880Z,99.90
2019-03-06T10:13:14.827Z,99.90
2019-03-06T10:16:15.665Z,99.90
2019-03-06T10:19:16.898Z,99.90
2019-03-06T10:21:59.274Z,99.90
2019-03-06T10:24:41.670Z,99.90
2019-03-06T10:27:23.824Z,99.90
2019-03-06T10:30:05.989Z,99.90
2019-03-06T10:32:50.165Z,99.90
2019-03-06T10:35:32.235Z,99.90
2019-03-06T10:38:16.760Z,99.90
2019-03-06T10:40:59.987Z,99.90
2019-03-06T10:43:48.902Z,99.90
2019-03-06T10:46:26.226Z,99.90
2019-03-06T10:49:08.334Z,99.90
2019-03-06T10:51:50.044Z,99.90
2019-03-06T10:54:20.478Z,99.90
2019-03-06T10:57:11.833Z,99.90
2019-03-06T11:00:03.378Z,99.90
2019-03-06T11:02:46.386Z,99.90
2019-03-06T11:05:32.680Z,99.90
2019-03-06T11:08:14.850Z,99.90
2019-03-06T11:10:56.752Z,99.90
2019-03-06T11:13:38.750Z,99.90
2019-03-06T11:16:20.807Z,99.90
2019-03-06T11:19:03.037Z,99.90
2019-03-06T11:21:45.309Z,99.90
2019-03-06T11:24:27.704Z,99.90
2019-03-06T11:27:10.732Z,99.90
2019-03-06T11:29:52.684Z,99.90
2019-03-06T11:32:34.810Z,99.90
2019-03-06T11:35:16.783Z,99.90
2019-03-06T11:37:57.297Z,99.90
2019-03-06T11:40:39.301Z,99.90
2019-03-06T11:43:21.045Z,99.90
2019-03-06T11:46:03.027Z,99.90
2019-03-06T11:48:44.551Z,99.90
2019-03-06T11:51:26.504Z,99.90
2019-03-06T11:54:06.889Z,99.90
2019-03-06T11:56:49.077Z,99.90
2019-03-06T12:02:39.241Z,99.90
2019-03-06T12:05:22.276Z,99.90
2019-03-06T12:08:04.732Z,99.90
2019-03-06T12:10:46.570Z,99.90
2019-03-06T12:13:28.504Z,99.90
2019-03-06T12:16:10.624Z,99.90
2019-03-06T12:18:53.086Z,99.90
2019-03-06T12:24:44.846Z,99.90
2019-03-06T12:27:26.551Z,99.90
2019-03-06T12:30:08.947Z,99.90
2019-03-06T12:32:51.146Z,99.90
2019-03-06T12:35:33.463Z,99.90
2019-03-06T12:38:15.333Z,99.90
2019-03-06T12:40:57.440Z,99.90
2019-03-06T12:43:39.436Z,99.90
2019-03-06T12:46:23.762Z,99.90
2019-03-06T12:49:04.813Z,99.90
2019-03-06T12:51:54.099Z,99.90
2019-03-06T12:54:30.022Z,99.90
2019-03-06T12:57:12.167Z,99.90
2019-03-06T12:59:54.054Z,99.90
2019-03-06T13:02:36.217Z,99.90
2019-03-06T13:05:18.694Z,99.90
2019-03-06T13:08:00.426Z,99.90
2019-03-06T13:10:42.473Z,99.90
2019-03-06T13:13:35.054Z,99.90
2019-03-06T13:16:08.862Z,99.90
2019-03-06T13:18:51.221Z,99.90
2019-03-06T13:21:33.802Z,99.90
2019-03-06T13:24:16.176Z,99.90
2019-03-06T13:27:00.878Z,99.90
2019-03-06T13:29:42.667Z,99.90
2019-03-06T13:32:27.218Z,99.90
2019-03-06T13:35:09.113Z,99.90
2019-03-06T13:37:50.678Z,99.90
2019-03-06T13:40:34.086Z,99.90
2019-03-06T13:43:16.486Z,99.90
2019-03-06T13:45:58.106Z,99.90
2019-03-06T13:48:40.075Z,99.90
2019-03-06T13:51:21.862Z,99.90
2019-03-06T13:54:03.981Z,99.90
2019-03-06T13:56:45.617Z,99.90
2019-03-06T13:59:27.738Z,99.90
2019-03-06T14:02:09.765Z,99.90
2019-03-06T14:04:51.685Z,99.90
2019-03-06T14:07:33.605Z,99.90
2019-03-06T14:10:15.687Z,99.90
2019-03-06T14:12:57.942Z,99.90
2019-03-06T14:15:39.844Z,99.90
2019-03-06T14:18:21.881Z,99.90
2019-03-06T14:21:02.433Z,99.90
2019-03-06T14:23:44.711Z,99.50
2019-03-06T14:26:26.597Z,99.40
2019-03-06T14:29:08.993Z,99.10
2019-03-06T14:31:52.228Z,99.50
2019-03-06T14:34:22.569Z,97.30
2019-03-06T14:37:04.757Z,97.00
2019-03-06T14:39:46.798Z,93.10
2019-03-06T14:42:17.077Z,90.10
2019-03-06T14:48:22.098Z,92.80
2019-03-06T14:51:04.447Z,93.50
2019-03-06T14:53:46.484Z,95.30
2019-03-06T14:56:28.385Z,95.80
2019-03-06T14:59:14.425Z,96.40
2019-03-06T15:01:56.382Z,97.80
2019-03-06T15:04:39.301Z,97.00
2019-03-06T15:07:21.425Z,97.70
2019-03-06T15:10:04.575Z,98.90
2019-03-06T15:12:48.684Z,99.00
2019-03-06T15:15:37.594Z,98.40
2019-03-06T15:18:11.045Z,99.30
2019-03-06T15:24:40.686Z,99.50
2019-03-06T15:27:17.055Z,99.10
2019-03-06T15:29:59.635Z,99.90
2019-03-06T15:32:42.215Z,99.90
2019-03-06T15:35:25.244Z,99.90
2019-03-06T15:38:07.959Z,99.90
2019-03-06T15:40:40.653Z,99.90
2019-03-06T15:43:30.653Z,99.90
2019-03-06T15:46:12.915Z,99.90
2019-03-06T15:48:55.003Z,99.90
2019-03-06T15:51:37.594Z,99.90
2019-03-06T15:54:19.769Z,99.90
2019-03-06T15:57:02.559Z,99.90
2019-03-06T15:59:44.745Z,99.90
2019-03-06T16:02:26.622Z,99.90
2019-03-06T16:05:08.537Z,99.90
2019-03-06T16:07:50.452Z,99.90
2019-03-06T16:10:32.369Z,99.90
2019-03-06T16:13:14.280Z,99.90
2019-03-06T16:15:56.506Z,99.90
2019-03-06T16:18:38.837Z,99.90
2019-03-06T16:21:20.578Z,99.90
2019-03-06T16:24:02.552Z,99.90
2019-03-06T16:26:44.336Z,99.90
2019-03-06T16:29:26.250Z,99.90
2019-03-06T16:32:08.330Z,99.90
2019-03-06T16:34:51.660Z,99.90
2019-03-06T16:37:33.721Z,99.90
2019-03-06T16:40:15.821Z,99.90
2019-03-06T16:42:58.061Z,99.90
2019-03-06T16:45:40.056Z,99.90
2019-03-06T16:48:22.002Z,99.90
2019-03-06T16:50:52.303Z,99.90
2019-03-06T16:53:41.958Z,99.90
2019-03-06T16:56:24.605Z,99.90
2019-03-06T16:59:06.978Z,99.90
2019-03-06T17:01:49.043Z,99.90
2019-03-06T17:04:31.386Z,99.90
2019-03-06T17:07:13.885Z,99.90
2019-03-06T17:09:55.715Z,99.90
2019-03-06T17:12:39.372Z,99.90
2019-03-06T17:15:22.917Z,99.90
2019-03-06T17:18:05.050Z,99.90
2019-03-06T17:20:47.357Z,99.90
2019-03-06T17:23:31.456Z,99.90
2019-03-06T17:26:14.378Z,99.90
2019-03-06T17:28:57.852Z,99.90
2019-03-06T17:31:42.801Z,99.90
2019-03-06T17:34:24.740Z,99.90
2019-03-06T17:37:07.811Z,99.90
2019-03-06T17:39:50.023Z,99.90
2019-03-06T17:42:31.854Z,99.90
2019-03-06T17:45:13.869Z,99.90
2019-03-06T17:47:55.479Z,99.90
2019-03-06T17:50:37.770Z,99.90
2019-03-06T17:53:19.961Z,99.90
2019-03-06T17:56:02.080Z,99.90
2019-03-06T17:58:44.200Z,99.90
2019-03-06T18:01:26.217Z,99.90
2019-03-06T18:04:18.264Z,99.90
2019-03-06T18:07:00.369Z,99.90
2019-03-06T18:09:43.511Z,99.90
2019-03-06T18:12:25.754Z,99.90
2019-03-06T18:15:07.651Z,99.90
2019-03-06T18:17:49.840Z,99.90
2019-03-06T18:20:31.933Z,99.90
2019-03-06T18:23:14.929Z,99.90
2019-03-06T18:25:57.314Z,99.90
2019-03-06T18:28:40.492Z,99.90
2019-03-06T18:31:22.546Z,99.90
2019-03-06T18:34:04.785Z,99.90
2019-03-06T18:36:46.773Z,99.90
2019-03-06T18:39:28.969Z,99.90
2019-03-06T18:42:11.244Z,99.90
2019-03-06T18:44:53.567Z,99.90
2019-03-06T18:47:35.346Z,99.90
2019-03-06T18:50:17.674Z,99.90
2019-03-06T18:53:00.082Z,99.90
2019-03-06T18:55:42.171Z,99.90
2019-03-06T18:58:24.485Z,99.90
2019-03-06T19:01:06.661Z,99.90
2019-03-06T19:03:48.844Z,99.90
2019-03-06T19:06:30.813Z,99.90
2019-03-06T19:09:13.061Z,99.90
2019-03-06T19:11:55.124Z,99.90
2019-03-06T19:14:36.840Z,99.90
2019-03-06T19:17:20.189Z,99.90
2019-03-06T19:20:02.670Z,99.90
2019-03-06T19:22:44.499Z,99.90
2019-03-06T19:25:26.413Z,99.90
2019-03-06T19:28:09.164Z,99.90
2019-03-06T19:30:51.597Z,99.90
2019-03-06T19:33:33.938Z,99.90
2019-03-06T19:36:16.680Z,99.90
2019-03-06T19:38:58.955Z,99.90
2019-03-06T19:41:41.147Z,99.90
2019-03-06T19:44:24.288Z,99.90
2019-03-06T19:47:06.606Z,99.90
2019-03-06T19:49:49.131Z,99.90
2019-03-06T19:52:30.916Z,99.90
2019-03-06T19:55:12.800Z,99.90
2019-03-06T19:57:54.928Z,99.90
2019-03-06T20:00:37.080Z,99.90
2019-03-06T20:03:19.805Z,99.90
2019-03-06T20:06:02.225Z,99.90
2019-03-06T20:08:44.516Z,99.90
2019-03-06T20:11:27.268Z,99.90
2019-03-06T20:14:09.737Z,99.90
2019-03-06T20:16:56.610Z,99.90
2019-03-06T20:19:40.573Z,99.90
2019-03-06T20:22:23.830Z,99.90
2019-03-06T20:25:08.817Z,99.90
2019-03-06T20:27:53.690Z,99.90
2019-03-06T20:33:39.196Z,99.90
2019-03-06T20:36:21.695Z,99.90
2019-03-06T20:39:04.622Z,99.90
2019-03-06T20:41:48.440Z,99.90
2019-03-06T20:44:36.077Z,99.90
2019-03-06T20:47:23.251Z,99.90
2019-03-06T20:50:26.348Z,99.90
2019-03-06T20:53:08.889Z,99.90
2019-03-06T20:55:55.251Z,99.90
2019-03-06T20:58:45.773Z,99.90
2019-03-06T21:01:28.490Z,99.90
2019-03-06T21:04:11.072Z,99.90
2019-03-06T21:06:53.357Z,99.90
2019-03-06T21:09:36.664Z,99.90
2019-03-06T21:12:19.285Z,99.90
2019-03-06T21:14:59.714Z,99.90
2019-03-06T21:17:41.918Z,99.90
2019-03-06T21:20:26.647Z,99.90
2019-03-06T21:23:08.644Z,99.90
2019-03-06T21:25:51.543Z,99.90
2019-03-06T21:28:36.609Z,99.90
2019-03-06T21:31:20.201Z,99.90
2019-03-06T21:34:02.339Z,99.90
2019-03-06T21:36:45.216Z,99.90
2019-03-06T21:39:27.640Z,99.90
2019-03-06T21:42:10.561Z,99.90
2019-03-06T21:44:53.568Z,99.90
2019-03-06T21:47:36.474Z,99.90
2019-03-06T21:50:18.637Z,99.90
2019-03-06T21:53:01.338Z,99.90
